Terminal Aerodrome Forecast
Issued by NWS Twin Cities, MN

Home | Current Version | Previous Version | Text Only | Print | Product List | Glossary On
Versions: 1 2 3 4 5 6 7 8 9 10 11 12 13 14 15 16 17 18
000
FTUS43 KMPX 080520
TAFEAU
TAF
KEAU 080520Z 0806/0906 28016G22KT P6SM -SN SCT025 OVC050
      TEMPO 0809/0813 2SM -SN OVC020
     FM081600 32018G21KT 6SM -SN OVC025
     FM090000 31015G21KT P6SM BKN025=

USA.gov is the U.S. government's official web portal to all federal, state and local government web resources and services.